Time;durP1;ratioP1;P1;durP2;ratioP2;P2;SDS_P1;SDS_P2;PMS_P1;PMS_P2;Temp;Humidity;BMP_temperature;BMP_pressure;BME280_temperature;BME280_humidity;BME280_pressure;Samples;Min_cycle;Max_cycle;Signal;HPM_P1;HPM_P2
2023/08/15 00:01:51;;;;;;;19.05;18.05;;;;;;;-141.02;69.57;41244.84;5112512;28;20274;-62
2023/08/15 00:04:18;;;;;;;19.30;18.30;;;;;;;-141.02;69.50;41273.63;5115962;28;20735;-68
2023/08/15 00:06:47;;;;;;;19.15;18.15;;;;;;;-141.02;69.79;41254.44;5116350;28;20219;-67
2023/08/15 00:09:51;;;;;;;18.98;17.98;;;;;;;-141.02;69.63;41258.28;5116312;28;20279;-67
2023/08/15 00:12:32;;;;;;;19.15;18.15;;;;;;;-141.02;70.98;41254.44;5116227;28;20197;-66
2023/08/15 00:14:59;;;;;;;19.13;18.13;;;;;;;-141.02;70.43;41267.88;5116372;28;20185;-62
2023/08/15 00:18:21;;;;;;;19.55;18.55;;;;;;;-141.02;70.68;41246.75;5116200;28;20651;-67
2023/08/15 00:20:48;;;;;;;19.40;18.40;;;;;;;-141.02;69.80;41285.13;5116054;28;20200;-68
2023/08/15 00:23:16;;;;;;;19.70;18.60;;;;;;;-141.02;70.22;41252.53;5115966;28;20228;-69
2023/08/15 00:25:43;;;;;;;19.27;18.27;;;;;;;-141.02;70.51;41273.63;5116342;28;20764;-69
2023/08/15 00:28:29;;;;;;;19.40;18.40;;;;;;;-141.02;70.63;41281.31;5116253;28;20227;-62
2023/08/15 00:30:56;;;;;;;19.30;18.30;;;;;;;-141.02;69.70;41296.66;5116340;28;20189;-68
2023/08/15 00:33:23;;;;;;;19.05;18.05;;;;;;;-141.02;70.15;41310.09;5116184;28;20201;-68
2023/08/15 00:35:53;;;;;;;19.00;18.00;;;;;;;-141.02;70.25;41308.16;5116162;28;20272;-68
2023/08/15 00:38:21;;;;;;;19.40;18.40;;;;;;;-141.02;71.41;41312.00;5115787;28;20734;-66
2023/08/15 00:40:48;;;;;;;19.15;18.05;;;;;;;-141.02;71.28;41313.91;5116014;28;20305;-61
2023/08/15 00:43:17;;;;;;;19.38;18.27;;;;;;;-141.02;72.73;41321.59;5115666;28;20288;-61
2023/08/15 00:45:45;;;;;;;19.30;18.30;;;;;;;-141.02;72.93;41317.75;5116078;28;20193;-61
2023/08/15 00:48:12;;;;;;;18.77;17.77;;;;;;;-141.02;71.36;41363.81;5115616;28;20577;-67
2023/08/15 00:50:42;;;;;;;18.92;17.92;;;;;;;-141.02;72.59;41359.97;5115643;28;20276;-68
2023/08/15 00:53:09;;;;;;;19.08;18.08;;;;;;;-141.02;74.26;41365.72;5115789;28;20276;-63
2023/08/15 00:55:38;;;;;;;19.75;18.67;;;;;;;-141.02;75.51;41344.63;5115717;28;20193;-64
2023/08/15 00:58:06;;;;;;;19.63;18.52;;;;;;;-141.02;75.29;41396.44;5115422;28;20228;-60
2023/08/15 01:00:33;;;;;;;18.95;18.05;;;;;;;-141.02;75.62;41396.44;5115651;28;20292;-67
2023/08/15 01:03:00;;;;;;;19.35;18.35;;;;;;;-141.02;76.10;41396.44;5115639;28;20371;-65
2023/08/15 01:05:49;;;;;;;19.17;18.17;;;;;;;-141.02;74.56;41484.72;5115546;28;20224;-63
2023/08/15 01:11:32;;;;;;;19.17;18.17;;;;;;;-141.02;77.24;41465.50;5047510;28;20700;-61
2023/08/15 01:14:03;;;;;;;18.55;17.65;;;;;;;-141.02;78.80;41423.28;5114918;28;20247;-64
2023/08/15 01:16:37;;;;;;;19.15;18.15;;;;;;;-141.02;77.79;41415.63;5115445;28;20181;-65
2023/08/15 01:19:11;;;;;;;19.08;18.08;;;;;;;-141.02;78.25;41423.28;5115085;28;20659;-62
2023/08/15 01:21:43;;;;;;;18.65;17.75;;;;;;;-141.02;78.66;41450.16;5115292;28;20185;-62
2023/08/15 01:24:12;;;;;;;18.55;17.65;;;;;;;-141.02;79.64;41423.28;5115105;28;20219;-62
2023/08/15 01:26:39;;;;;;;18.38;17.48;;;;;;;-141.02;81.05;41388.75;5114873;28;20288;-62
2023/08/15 01:29:06;;;;;;;18.80;17.90;;;;;;;-141.02;80.51;41365.72;5115090;28;20215;-61
2023/08/15 01:31:37;;;;;;;18.65;17.75;;;;;;;-141.02;80.98;41361.91;5114797;28;20197;-63
2023/08/15 01:34:11;;;;;;;18.17;17.27;;;;;;;-141.02;78.27;41419.47;5114708;28;20281;-60
2023/08/15 01:36:44;;;;;;;18.80;17.90;;;;;;;-141.02;77.73;41407.94;5114745;28;20196;-63
2023/08/15 01:39:15;;;;;;;18.67;17.77;;;;;;;-141.02;76.42;41394.50;5114945;28;20264;-61
2023/08/15 01:41:44;;;;;;;19.17;18.17;;;;;;;-141.02;76.24;41438.66;5114585;28;20185;-62
2023/08/15 01:44:24;;;;;;;19.13;18.13;;;;;;;-141.02;75.30;41438.66;5114694;28;20260;-63
2023/08/15 01:46:51;;;;;;;19.33;18.38;;;;;;;-141.02;74.33;41432.91;5114472;28;20189;-63
2023/08/15 01:49:19;;;;;;;19.70;18.70;;;;;;;-141.02;72.86;41438.66;5114440;28;20239;-64
2023/08/15 01:51:46;;;;;;;19.25;18.35;;;;;;;-141.02;71.46;41440.56;5114202;28;20315;-61
2023/08/15 01:54:15;;;;;;;19.17;18.23;;;;;;;-141.02;70.18;41469.34;5114318;28;20714;-63
2023/08/15 01:56:43;;;;;;;19.50;18.50;;;;;;;-141.02;69.33;41477.03;5114564;28;20193;-66
2023/08/15 02:02:31;;;;;;;19.50;18.50;;;;;;;-141.02;66.86;41465.50;5114316;28;20239;-59
2023/08/15 02:05:01;;;;;;;19.33;18.33;;;;;;;-141.02;66.87;41480.88;5114000;28;20722;-67
2023/08/15 02:07:29;;;;;;;19.42;18.42;;;;;;;-141.02;65.90;41515.41;5114176;28;20185;-67
2023/08/15 02:09:57;;;;;;;18.90;18.00;;;;;;;-141.02;65.49;41496.22;5113947;28;20285;-66
2023/08/15 02:12:24;;;;;;;19.05;18.15;;;;;;;-141.02;65.24;41515.41;5114235;28;20279;-67
2023/08/15 02:14:51;;;;;;;19.33;18.33;;;;;;;-141.02;64.95;41526.91;5113831;28;20193;-67
2023/08/15 02:17:18;;;;;;;19.38;18.38;;;;;;;-141.02;63.71;41536.53;5113832;28;20541;-68
2023/08/15 02:19:45;;;;;;;19.40;18.40;;;;;;;-141.02;63.55;41544.19;5113791;28;20237;-63
2023/08/15 02:22:12;;;;;;;19.20;18.20;;;;;;;-141.02;62.72;41542.28;5114015;28;20227;-68
2023/08/15 02:24:39;;;;;;;19.85;18.85;;;;;;;-141.02;61.53;41538.44;5113290;28;20316;-69
2023/08/15 02:27:07;;;;;;;19.35;18.35;;;;;;;-141.02;61.17;41534.59;5113138;28;20193;-67
2023/08/15 02:29:34;;;;;;;19.38;18.38;;;;;;;-141.02;61.17;41584.50;5113934;28;20221;-66
2023/08/15 02:32:01;;;;;;;19.15;18.20;;;;;;;-141.02;61.49;41584.50;5113864;28;20190;-66
2023/08/15 02:34:28;;;;;;;19.55;18.55;;;;;;;-141.02;62.03;41596.00;5113542;28;20730;-68
2023/08/15 02:36:55;;;;;;;19.55;18.55;;;;;;;-141.02;61.70;41596.00;5113840;28;20205;-64
2023/08/15 02:39:22;;;;;;;19.65;18.65;;;;;;;-141.02;61.06;41622.88;5113382;28;20226;-65
2023/08/15 02:41:49;;;;;;;19.75;18.75;;;;;;;-141.02;60.35;41638.22;5113417;28;20742;-67
2023/08/15 02:44:17;;;;;;;19.58;18.58;;;;;;;-141.02;60.10;41661.25;5113247;28;20224;-69
2023/08/15 02:46:44;;;;;;;19.08;18.17;;;;;;;-141.02;60.42;41657.41;5113272;28;20284;-68
2023/08/15 02:49:11;;;;;;;19.05;18.15;;;;;;;-141.02;60.06;41668.94;5113226;28;20279;-68
2023/08/15 02:59:13;;;;;;;19.45;18.45;;;;;;;-141.02;58.68;41711.16;5113226;28;20177;-64
2023/08/15 03:05:37;;;;;;;19.30;18.30;;;;;;;-141.02;59.43;41749.53;5113091;28;20688;-67
2023/08/15 03:08:05;;;;;;;19.48;18.48;;;;;;;-141.02;59.59;41759.13;5113052;28;20559;-67
2023/08/15 03:10:32;;;;;;;19.73;18.73;;;;;;;-141.02;59.20;41784.06;5112923;28;20199;-64
2023/08/15 03:16:21;;;;;;;19.05;18.05;;;;;;;-141.02;59.03;41780.25;5112933;28;20218;-59
2023/08/15 03:18:48;;;;;;;18.92;18.02;;;;;;;-141.02;59.69;41772.56;5112723;28;20196;-63
2023/08/15 03:21:17;;;;;;;18.90;17.90;;;;;;;-141.02;59.70;41822.47;5113000;28;20276;-64
2023/08/15 03:23:43;;;;;;;19.25;18.25;;;;;;;-141.02;59.98;41826.31;5112648;28;20228;-63
2023/08/15 03:26:10;;;;;;;18.88;17.98;;;;;;;-141.02;60.01;41853.16;5112946;28;20229;-61
2023/08/15 03:28:38;;;;;;;19.30;18.30;;;;;;;-141.02;60.08;41922.25;5112945;28;20280;-64
2023/08/15 03:31:05;;;;;;;19.15;18.15;;;;;;;-141.02;60.05;41855.09;5112925;28;20232;-67
2023/08/15 03:33:33;;;;;;;19.35;18.35;;;;;;;-141.02;59.49;41929.94;5113738;28;20193;-69
2023/08/15 03:36:01;;;;;;;19.25;18.25;;;;;;;-141.02;59.65;41968.31;5112826;28;20254;-62
2023/08/15 03:38:29;;;;;;;19.23;18.23;;;;;;;-141.02;59.84;41983.69;5112769;28;20284;-60
2023/08/15 03:41:03;;;;;;;18.92;17.92;;;;;;;-141.02;60.43;41991.34;5112817;28;20193;-64
2023/08/15 03:43:31;;;;;;;18.92;18.02;;;;;;;-141.02;60.66;42014.38;5112719;28;20230;-64
2023/08/15 03:45:59;;;;;;;19.25;18.25;;;;;;;-141.02;61.05;42064.28;5112694;28;20232;-59
2023/08/15 03:48:26;;;;;;;18.80;17.85;;;;;;;-141.02;61.35;42087.31;5112431;28;20197;-59
2023/08/15 03:50:54;;;;;;;20.35;19.35;;;;;;;-141.02;61.95;42098.84;5112447;28;20197;-62
2023/08/15 03:53:21;;;;;;;18.92;17.92;;;;;;;-141.02;62.19;42118.03;5112469;28;20196;-67
2023/08/15 03:55:50;;;;;;;18.98;17.98;;;;;;;-141.02;62.76;42118.03;5112386;28;20609;-65
2023/08/15 03:58:18;;;;;;;18.90;18.00;;;;;;;-141.02;63.08;42091.16;5112691;28;20313;-59
2023/08/15 04:00:45;;;;;;;18.30;17.40;;;;;;;-141.02;63.06;42127.63;5112311;28;20201;-61
2023/08/15 04:03:12;;;;;;;19.00;18.00;;;;;;;-141.02;63.27;42137.22;5112659;28;20277;-64
2023/08/15 04:05:39;;;;;;;18.83;17.83;;;;;;;-141.02;63.35;42233.19;5112468;28;20661;-60
2023/08/15 04:08:06;;;;;;;18.73;17.77;;;;;;;-141.02;63.96;42202.47;5112362;28;20730;-60
2023/08/15 04:10:39;;;;;;;18.67;17.77;;;;;;;-141.02;65.18;42363.72;5112495;28;20200;-64
2023/08/15 04:13:07;;;;;;;18.30;17.40;;;;;;;-141.02;65.13;42286.94;5112268;28;20189;-60
2023/08/15 04:15:35;;;;;;;18.90;18.00;;;;;;;-141.02;64.71;42248.53;5112230;28;20288;-59
2023/08/15 04:18:03;;;;;;;18.83;17.88;;;;;;;-141.02;64.81;42248.53;5112483;28;20198;-61
2023/08/15 04:20:30;;;;;;;18.80;17.80;;;;;;;-141.02;65.08;42267.75;5112404;28;20224;-65
2023/08/15 04:22:57;;;;;;;19.08;18.08;;;;;;;-141.02;65.51;42315.72;5112466;28;20266;-64
2023/08/15 04:25:24;;;;;;;19.05;18.05;;;;;;;-141.02;65.17;42238.94;5112051;28;20281;-60
2023/08/15 04:27:51;;;;;;;19.13;18.13;;;;;;;-141.02;65.49;42248.53;5112526;28;20236;-61
2023/08/15 04:30:20;;;;;;;18.95;17.95;;;;;;;-141.02;65.91;42271.56;5112005;28;20199;-64
2023/08/15 04:32:48;;;;;;;18.70;17.70;;;;;;;-141.02;65.42;42217.84;5112353;28;20772;-59
2023/08/15 04:35:15;;;;;;;18.67;17.77;;;;;;;-141.02;65.98;42144.91;5112023;28;20657;-66
2023/08/15 04:37:42;;;;;;;19.17;18.17;;;;;;;-141.02;65.65;42135.31;5112225;28;20610;-65
2023/08/15 04:40:13;;;;;;;18.13;17.23;;;;;;;-141.02;65.29;42206.31;5112010;28;20279;-61
2023/08/15 04:42:40;;;;;;;18.90;17.90;;;;;;;-141.02;64.91;42267.75;5112761;28;20201;-62
2023/08/15 04:45:08;;;;;;;18.58;17.67;;;;;;;-141.02;64.83;42298.44;5112519;28;20268;-68
2023/08/15 04:47:37;;;;;;;19.70;18.70;;;;;;;-141.02;64.88;42254.31;5112006;28;20200;-59
2023/08/15 04:50:04;;;;;;;18.48;17.58;;;;;;;-141.02;64.89;42327.25;5115002;28;20735;-65
2023/08/15 04:52:31;;;;;;;18.05;17.15;;;;;;;-141.02;65.11;42365.63;5115927;28;20289;-67
2023/08/15 04:54:58;;;;;;;18.52;17.63;;;;;;;-141.02;64.86;42402.09;5115541;28;20233;-64
2023/08/15 04:57:25;;;;;;;18.88;17.88;;;;;;;-141.02;64.97;42317.66;5115512;28;20721;-64
2023/08/15 04:59:52;;;;;;;18.63;17.73;;;;;;;-141.02;64.73;42210.16;5115461;28;20663;-62
2023/08/15 05:02:19;;;;;;;18.15;17.25;;;;;;;-141.02;64.89;42156.41;5115726;28;20189;-68
2023/08/15 05:04:47;;;;;;;17.88;17.08;;;;;;;-141.02;65.06;42060.44;5115159;28;20216;-64
2023/08/15 05:07:14;;;;;;;17.48;16.67;;;;;;;-141.02;65.38;42041.25;5115300;28;20634;-59
2023/08/15 05:09:42;;;;;;;18.55;17.65;;;;;;;-141.02;65.68;42164.09;5115196;28;20280;-65
2023/08/15 05:12:09;;;;;;;18.63;17.73;;;;;;;-141.02;67.44;42215.91;5115199;28;20280;-59
2023/08/15 05:14:36;;;;;;;18.45;17.55;;;;;;;-141.02;68.11;42283.09;5115445;28;20292;-65
2023/08/15 05:17:03;;;;;;;19.35;18.35;;;;;;;-141.02;71.67;42325.31;5115086;28;20670;-65
2023/08/15 05:19:30;;;;;;;34.90;32.60;;;;;;;-141.02;84.21;42206.31;5115328;28;20228;-63
2023/08/15 05:21:59;;;;;;;31.70;29.70;;;;;;;-141.02;94.62;41837.81;5114927;28;20285;-67
2023/08/15 05:24:26;;;;;;;25.77;24.17;;;;;;;-141.02;98.17;41653.59;5114849;28;20644;-58
2023/08/15 05:26:53;;;;;;;24.40;23.00;;;;;;;-141.02;98.49;41561.47;5114953;28;20288;-66
2023/08/15 05:29:20;;;;;;;25.30;23.90;;;;;;;-141.02;98.97;41511.56;5115178;28;20216;-68
2023/08/15 05:31:46;;;;;;;25.77;24.27;;;;;;;-141.02;100.00;41549.94;5114778;28;20203;-64
2023/08/15 05:34:13;;;;;;;24.85;23.45;;;;;;;-141.02;100.00;41346.53;5114801;28;20627;-64
2023/08/15 05:36:40;;;;;;;23.35;22.15;;;;;;;-141.02;100.00;41173.84;5115038;28;20256;-67
2023/08/15 05:39:09;;;;;;;23.80;22.50;;;;;;;-141.02;100.00;41152.75;5114660;28;20233;-66
2023/08/15 05:41:39;;;;;;;22.65;21.45;;;;;;;-141.02;100.00;41241.00;5114624;28;20643;-66
2023/08/15 05:44:06;;;;;;;21.73;20.63;;;;;;;-141.02;100.00;41185.34;5114624;28;20285;-60
2023/08/15 05:46:33;;;;;;;19.73;18.83;;;;;;;-141.02;100.00;41177.69;5114696;28;20425;-66
2023/08/15 05:49:00;;;;;;;17.90;17.10;;;;;;;-141.02;100.00;41181.53;5114472;28;20276;-61
2023/08/15 05:51:27;;;;;;;17.50;16.70;;;;;;;-141.02;100.00;41206.47;5114424;28;20693;-68
2023/08/15 05:53:54;;;;;;;17.30;16.60;;;;;;;-141.02;100.00;41269.78;5114420;28;20193;-63
2023/08/15 05:56:22;;;;;;;17.88;17.08;;;;;;;-141.02;100.00;41110.53;5114465;27;20193;-64
2023/08/15 05:58:49;;;;;;;18.20;17.40;;;;;;;-141.02;100.00;41085.59;5114629;27;20671;-65
2023/08/15 06:01:16;;;;;;;17.48;16.77;;;;;;;-141.02;100.00;41137.38;5114566;28;20284;-58
2023/08/15 06:03:43;;;;;;;16.95;16.25;;;;;;;-141.02;100.00;41331.19;5114100;28;20593;-58
2023/08/15 06:06:10;;;;;;;16.48;15.77;;;;;;;-141.02;100.00;41254.44;5114081;28;20320;-61
2023/08/15 06:08:37;;;;;;;17.25;16.45;;;;;;;-141.02;99.44;41298.56;5114384;28;20247;-68
2023/08/15 06:11:04;;;;;;;17.02;16.30;;;;;;;-141.02;100.00;41214.13;5114059;28;20197;-64
2023/08/15 06:13:33;;;;;;;16.70;16.00;;;;;;;-141.02;100.00;41246.75;5113913;28;20651;-61
2023/08/15 06:16:00;;;;;;;16.75;16.05;;;;;;;-141.02;100.00;41300.50;5113889;28;20685;-65
2023/08/15 06:18:27;;;;;;;16.52;15.82;;;;;;;-141.02;100.00;41131.63;5114248;27;20224;-61
2023/08/15 06:20:54;;;;;;;16.15;15.40;;;;;;;-141.02;100.00;41108.59;5113865;28;20618;-59
2023/08/15 06:23:21;;;;;;;17.27;16.55;;;;;;;-141.02;100.00;41287.06;5113786;28;20200;-59
2023/08/15 06:25:48;;;;;;;17.13;16.42;;;;;;;-141.02;100.00;41354.22;5113927;28;20242;-59
2023/08/15 06:28:17;;;;;;;16.98;16.17;;;;;;;-141.02;100.00;41392.59;5113671;28;20228;-67
2023/08/15 06:30:45;;;;;;;17.52;16.73;;;;;;;-141.02;100.00;41438.66;5113960;28;20220;-62
2023/08/15 06:33:12;;;;;;;17.50;16.70;;;;;;;-141.02;98.90;41404.09;5113815;28;20201;-59
2023/08/15 06:35:39;;;;;;;17.73;16.85;;;;;;;-141.02;100.00;41419.47;5113850;28;20242;-59
2023/08/15 06:38:06;;;;;;;17.85;17.05;;;;;;;-141.02;99.68;41498.13;5113843;28;20193;-58
2023/08/15 06:40:33;;;;;;;17.90;17.00;;;;;;;-141.02;97.59;41354.22;5113825;28;20231;-64
2023/08/15 06:43:00;;;;;;;17.95;17.05;;;;;;;-141.02;96.65;41498.13;5113468;28;20721;-66
2023/08/15 06:45:27;;;;;;;18.02;17.13;;;;;;;-141.02;93.93;41515.41;5113552;28;20311;-65
2023/08/15 06:47:55;;;;;;;17.85;16.85;;;;;;;-141.02;96.57;41530.75;5113380;28;20283;-62
2023/08/15 06:50:22;;;;;;;17.90;17.00;;;;;;;-141.02;96.00;41534.59;5113545;28;20296;-64
2023/08/15 06:52:49;;;;;;;18.40;17.40;;;;;;;-141.02;92.49;41448.25;5113117;28;20239;-63
2023/08/15 06:55:16;;;;;;;18.30;17.40;;;;;;;-141.02;93.04;41597.94;5113453;28;20197;-60
2023/08/15 06:57:43;;;;;;;18.40;17.40;;;;;;;-141.02;93.61;41536.53;5113353;28;20215;-65
2023/08/15 07:00:13;;;;;;;18.45;17.45;;;;;;;-141.02;93.27;41563.38;5113499;28;20199;-60
2023/08/15 07:02:41;;;;;;;17.98;17.08;;;;;;;-141.02;97.27;41643.97;5113046;28;20600;-59
2023/08/15 07:05:10;;;;;;;18.05;17.15;;;;;;;-141.02;93.19;41523.09;5113227;28;20198;-68
2023/08/15 07:07:38;;;;;;;18.38;17.48;;;;;;;-141.02;95.46;41515.41;5112909;28;20213;-64
2023/08/15 07:10:06;;;;;;;18.48;17.58;;;;;;;-141.02;94.99;41549.94;5113254;27;20197;-62
2023/08/15 07:12:33;;;;;;;18.17;17.27;;;;;;;-141.02;94.21;41569.13;5112499;28;20287;-65
2023/08/15 07:15:01;;;;;;;18.17;17.27;;;;;;;-141.02;92.45;41674.69;5113116;28;20189;-63
2023/08/15 07:17:28;;;;;;;18.63;17.73;;;;;;;-141.02;88.68;41596.00;5113142;28;20228;-67
2023/08/15 07:19:56;;;;;;;18.40;17.50;;;;;;;-141.02;89.47;41715.00;5113043;28;20279;-64
2023/08/15 07:22:24;;;;;;;17.90;17.00;;;;;;;-141.02;87.69;41741.84;5112695;28;20626;-65
2023/08/15 07:24:51;;;;;;;17.77;16.88;;;;;;;-141.02;87.79;41749.53;5112671;28;20288;-62
2023/08/15 07:27:18;;;;;;;18.00;17.10;;;;;;;-141.02;87.75;41661.25;5112919;28;20287;-60
2023/08/15 07:29:45;;;;;;;18.27;17.27;;;;;;;-141.02;87.34;41699.63;5113000;28;20225;-60
2023/08/15 07:32:12;;;;;;;17.92;16.92;;;;;;;-141.02;87.55;41822.47;5112556;28;20196;-59
2023/08/15 07:34:40;;;;;;;17.98;16.98;;;;;;;-141.02;87.62;41916.50;5112567;28;20236;-62
2023/08/15 07:37:07;;;;;;;17.70;16.80;;;;;;;-141.02;84.81;41960.66;5112803;28;20189;-64
2023/08/15 07:39:36;;;;;;;17.52;16.63;;;;;;;-141.02;87.59;42141.06;5112521;28;20288;-67
2023/08/15 07:42:03;;;;;;;18.20;17.20;;;;;;;-141.02;84.22;42121.88;5112594;28;20228;-65
2023/08/15 07:44:30;;;;;;;18.15;17.15;;;;;;;-141.02;82.93;42141.06;5112432;28;20198;-64
2023/08/15 07:46:57;;;;;;;18.05;17.05;;;;;;;-141.02;79.96;42085.41;5112376;28;20224;-64
2023/08/15 07:49:24;;;;;;;17.98;17.08;;;;;;;-141.02;79.32;42060.44;5112702;28;20228;-59
2023/08/15 07:51:52;;;;;;;18.55;17.55;;;;;;;-141.02;77.05;42183.28;5112692;28;20316;-66
2023/08/15 07:54:20;;;;;;;18.52;17.58;;;;;;;-141.02;80.83;42075.81;5112693;28;20254;-66
2023/08/15 07:56:48;;;;;;;18.60;17.70;;;;;;;-141.02;79.29;42014.38;5112623;28;20197;-66
2023/08/15 07:59:16;;;;;;;18.27;17.38;;;;;;;-141.02;77.97;42075.81;5112300;28;20683;-59
2023/08/15 08:01:43;;;;;;;17.85;16.95;;;;;;;-141.02;80.04;42106.50;5112233;28;20284;-65
2023/08/15 08:04:10;;;;;;;18.25;17.35;;;;;;;-141.02;81.41;42048.94;5112590;28;20189;-63
2023/08/15 08:06:37;;;;;;;17.95;16.98;;;;;;;-141.02;80.35;42112.28;5112395;28;20257;-62
2023/08/15 08:09:05;;;;;;;18.00;17.10;;;;;;;-141.02;80.54;42098.84;5112267;28;20767;-62
2023/08/15 08:11:32;;;;;;;18.15;17.25;;;;;;;-141.02;79.53;42095.00;5112263;28;20197;-65
2023/08/15 08:14:01;;;;;;;18.75;17.85;;;;;;;-141.02;78.93;42037.41;5112128;28;20201;-66
2023/08/15 08:16:28;;;;;;;18.35;17.45;;;;;;;-141.02;80.31;42073.88;5112486;28;20310;-67
2023/08/15 08:18:55;;;;;;;19.10;18.20;;;;;;;-141.02;79.36;42129.53;5112383;28;20201;-62
2023/08/15 08:21:22;;;;;;;18.00;17.10;;;;;;;-141.02;81.44;42114.19;5112514;28;20612;-59
2023/08/15 08:23:49;;;;;;;18.20;17.30;;;;;;;-141.02;78.81;42064.28;5113254;28;20228;-67
2023/08/15 08:26:16;;;;;;;18.38;17.58;;;;;;;-141.02;78.63;42006.72;5116326;28;20239;-65
2023/08/15 08:28:43;;;;;;;18.58;17.77;;;;;;;-141.02;80.14;42033.56;5116356;28;20642;-66
2023/08/15 08:31:11;;;;;;;18.92;18.02;;;;;;;-141.02;80.53;42045.09;5116021;28;20639;-63
2023/08/15 08:33:38;;;;;;;17.95;17.15;;;;;;;-141.02;80.91;41999.03;5116415;28;20189;-59
2023/08/15 08:36:05;;;;;;;18.42;17.63;;;;;;;-141.02;81.52;42079.63;5116237;28;20228;-60
2023/08/15 08:38:32;;;;;;;18.83;18.02;;;;;;;-141.02;81.18;42079.63;5116132;28;20272;-63
2023/08/15 08:40:59;;;;;;;18.23;17.42;;;;;;;-141.02;81.73;42187.13;5116075;28;20228;-66
2023/08/15 08:43:28;;;;;;;18.25;17.45;;;;;;;-141.02;81.30;42363.72;5116008;28;20220;-60
2023/08/15 08:46:00;;;;;;;18.23;17.42;;;;;;;-141.02;80.15;42311.88;5115637;28;20221;-58
2023/08/15 08:48:29;;;;;;;19.00;18.20;;;;;;;-141.02;78.63;42333.00;5116063;28;20242;-62
2023/08/15 08:50:57;;;;;;;19.08;18.20;;;;;;;-141.02;78.60;42505.75;5115335;28;20189;-61
2023/08/15 08:53:25;;;;;;;19.38;18.50;;;;;;;-141.02;77.03;42452.00;5115865;28;20250;-60
2023/08/15 08:55:53;;;;;;;19.35;18.45;;;;;;;-141.02;74.94;42450.09;5115582;28;20236;-60
2023/08/15 08:58:23;;;;;;;18.52;17.73;;;;;;;-141.02;75.06;42597.91;5115745;28;20246;-62
2023/08/15 09:00:50;;;;;;;18.60;17.80;;;;;;;-141.02;75.80;42434.72;5115353;28;20193;-58
2023/08/15 09:03:18;;;;;;;20.02;19.13;;;;;;;-141.02;77.06;42427.06;5115712;28;20228;-59
2023/08/15 09:05:46;;;;;;;19.67;18.77;;;;;;;-141.02;79.50;42505.75;5115169;28;20735;-61
2023/08/15 09:08:14;;;;;;;22.52;21.42;;;;;;;-141.02;81.76;42594.06;5115245;28;20262;-60
2023/08/15 09:10:41;;;;;;;21.95;20.95;;;;;;;-141.02;79.91;42459.69;5115564;28;20193;-66
2023/08/15 09:13:08;;;;;;;21.75;20.75;;;;;;;-141.02;77.99;42379.06;5115489;28;20193;-64
2023/08/15 09:15:35;;;;;;;22.13;21.10;;;;;;;-141.02;80.45;42363.72;5115240;28;20246;-61
2023/08/15 09:18:04;;;;;;;18.80;17.90;;;;;;;-141.02;78.89;42381.00;5115077;28;20284;-62
2023/08/15 09:20:31;;;;;;;18.30;17.50;;;;;;;-141.02;79.63;42473.13;5115258;28;20203;-62
2023/08/15 09:23:01;;;;;;;18.98;18.08;;;;;;;-141.02;78.10;42319.56;5114995;28;20280;-67
2023/08/15 09:25:30;;;;;;;19.50;18.60;;;;;;;-141.02;77.98;42342.59;5115199;28;20606;-62
2023/08/15 09:27:57;;;;;;;19.10;18.20;;;;;;;-141.02;78.04;42357.94;5115035;27;20320;-63
2023/08/15 09:30:24;;;;;;;18.77;17.88;;;;;;;-141.02;78.42;42329.16;5114889;27;20197;-61
2023/08/15 09:32:51;;;;;;;17.85;17.05;;;;;;;-141.02;79.18;42417.47;5115919;28;20254;-67
2023/08/15 09:35:19;;;;;;;18.90;18.00;;;;;;;-141.02;77.80;42427.06;5114646;28;20272;-60
2023/08/15 09:37:47;;;;;;;19.05;18.15;;;;;;;-141.02;78.28;42382.91;5114989;28;20576;-61
2023/08/15 09:40:18;;;;;;;18.88;17.98;;;;;;;-141.02;77.65;42373.31;5114876;28;20276;-61
2023/08/15 09:42:46;;;;;;;18.95;18.05;;;;;;;-141.02;76.94;42444.34;5114975;28;20627;-64
2023/08/15 09:45:13;;;;;;;19.08;18.17;;;;;;;-141.02;77.24;42475.03;5114868;28;20197;-65
2023/08/15 09:47:41;;;;;;;18.85;17.95;;;;;;;-141.02;75.20;42444.34;5114769;27;20647;-58
2023/08/15 09:50:10;;;;;;;19.08;18.17;;;;;;;-141.02;75.79;42544.16;5114433;27;20280;-62
2023/08/15 09:52:39;;;;;;;18.25;17.45;;;;;;;-141.02;75.28;42486.56;5114157;28;20640;-64
2023/08/15 09:55:09;;;;;;;18.70;17.80;;;;;;;-141.02;75.96;42667.00;5114699;28;20200;-64
2023/08/15 09:57:38;;;;;;;18.55;17.65;;;;;;;-141.02;74.75;42563.34;5114550;28;20247;-66
2023/08/15 10:00:08;;;;;;;18.58;17.67;;;;;;;-141.02;75.14;42432.81;5114247;28;20271;-64
2023/08/15 10:02:43;;;;;;;18.23;17.33;;;;;;;-141.02;77.05;42404.03;5114527;28;20182;-62
2023/08/15 10:05:12;;;;;;;18.40;17.50;;;;;;;-141.02;77.99;42394.41;5114283;28;20262;-63
2023/08/15 10:07:42;;;;;;;17.48;16.67;;;;;;;-141.02;77.79;42402.09;5114031;28;20229;-64
2023/08/15 10:10:10;;;;;;;18.17;17.27;;;;;;;-141.02;77.90;42413.63;5114097;28;20203;-63
2023/08/15 10:12:41;;;;;;;18.30;17.40;;;;;;;-141.02;78.77;42446.25;5114337;28;20256;-61
2023/08/15 10:15:10;;;;;;;17.55;16.75;;;;;;;-141.02;79.37;42490.41;5114367;28;20189;-65
2023/08/15 10:17:38;;;;;;;17.55;16.75;;;;;;;-141.02;79.07;42486.56;5113926;28;20205;-61
2023/08/15 10:20:10;;;;;;;17.80;17.00;;;;;;;-141.02;78.86;42448.16;5113808;28;20268;-65
2023/08/15 10:22:38;;;;;;;17.90;17.10;;;;;;;-141.02;79.76;42461.59;5113867;28;20197;-64
2023/08/15 10:25:35;;;;;;;17.77;16.98;;;;;;;-141.02;78.69;42444.34;5114098;28;20284;-64
2023/08/15 10:28:09;;;;;;;17.85;16.95;;;;;;;-141.02;78.08;42333.00;5104967;28;20220;-65
2023/08/15 10:30:42;;;;;;;17.90;17.00;;;;;;;-141.02;79.32;42428.97;5113660;28;20660;-65
2023/08/15 10:33:16;;;;;;;17.80;17.00;;;;;;;-141.02;77.47;42390.59;5113946;28;20196;-65
2023/08/15 10:35:52;;;;;;;17.60;16.70;;;;;;;-141.02;77.70;42290.78;5113898;28;20254;-64
2023/08/15 10:38:21;;;;;;;17.05;16.25;;;;;;;-141.02;78.75;42409.78;5113899;27;20189;-65
2023/08/15 10:40:49;;;;;;;17.80;16.90;;;;;;;-141.02;78.03;42333.00;5113585;28;20240;-65
2023/08/15 10:43:17;;;;;;;17.05;16.25;;;;;;;-141.02;77.79;42336.84;5113773;28;20276;-62
2023/08/15 10:45:48;;;;;;;17.80;16.90;;;;;;;-141.02;79.35;42352.19;5113464;28;20201;-66
2023/08/15 10:48:15;;;;;;;17.27;16.48;;;;;;;-141.02;79.21;42356.03;5113315;28;20217;-64
2023/08/15 10:50:47;;;;;;;17.75;16.85;;;;;;;-141.02;79.22;42313.81;5113164;28;20231;-58
2023/08/15 10:53:15;;;;;;;17.30;16.50;;;;;;;-141.02;78.22;42261.97;5113291;28;20189;-58
2023/08/15 10:55:42;;;;;;;17.42;16.63;;;;;;;-141.02;79.60;42304.22;5113548;28;20272;-61
2023/08/15 10:58:11;;;;;;;17.70;16.80;;;;;;;-141.02;78.97;42240.88;5113206;28;20236;-63
2023/08/15 11:00:41;;;;;;;17.17;16.38;;;;;;;-141.02;78.79;42252.38;5113335;28;20193;-63
2023/08/15 11:03:08;;;;;;;18.00;17.10;;;;;;;-141.02;79.03;42279.25;5113376;28;20250;-63
2023/08/15 11:05:36;;;;;;;17.40;16.60;;;;;;;-141.02;79.77;42261.97;5112973;28;20657;-58
2023/08/15 11:08:16;;;;;;;17.48;16.67;;;;;;;-141.02;79.31;42237.03;5112925;28;20787;-62
2023/08/15 11:10:49;;;;;;;17.58;16.77;;;;;;;-141.02;80.24;42267.75;5112888;28;20250;-65
2023/08/15 11:13:16;;;;;;;17.77;16.90;;;;;;;-141.02;80.42;42256.22;5112873;28;20620;-62
2023/08/15 11:15:46;;;;;;;17.50;16.70;;;;;;;-141.02;80.36;42252.38;5112845;28;20189;-60
2023/08/15 11:18:20;;;;;;;18.05;17.15;;;;;;;-141.02;81.44;42237.03;5112809;28;20261;-65
2023/08/15 11:20:48;;;;;;;17.80;16.90;;;;;;;-141.02;82.89;42256.22;5113091;28;20215;-65
2023/08/15 11:23:15;;;;;;;17.50;16.70;;;;;;;-141.02;83.25;42336.84;5113024;28;20205;-63
2023/08/15 11:25:43;;;;;;;17.35;16.55;;;;;;;-141.02;83.66;42407.84;5113063;28;20196;-65
2023/08/15 11:28:10;;;;;;;17.10;16.30;;;;;;;-141.02;82.80;42388.66;5112944;28;20229;-63
2023/08/15 11:30:37;;;;;;;17.48;16.67;;;;;;;-141.02;81.90;42359.88;5112660;28;20197;-63